sensor_id;sensor_type;location;lat;lon;timestamp;pressure;altitude;pressure_sealevel;temperature;humidity
59240;BME280;45010;53.640;10.578;2022-12-10T00:00:45;100246.97;;;25.35;34.40
59240;BME280;45010;53.640;10.578;2022-12-10T00:03:45;100215.00;;;25.18;34.55
59240;BME280;45010;53.640;10.578;2022-12-10T00:06:46;100241.63;;;25.35;34.26
59240;BME280;45010;53.640;10.578;2022-12-10T00:09:47;100248.56;;;25.36;34.30
59240;BME280;45010;53.640;10.578;2022-12-10T00:12:47;100245.66;;;25.38;34.03
59240;BME280;45010;53.640;10.578;2022-12-10T00:15:47;100235.16;;;25.31;34.20
59240;BME280;45010;53.640;10.578;2022-12-10T00:18:48;100230.34;;;25.28;34.17
59240;BME280;45010;53.640;10.578;2022-12-10T00:21:49;100242.94;;;25.33;33.79
59240;BME280;45010;53.640;10.578;2022-12-10T00:24:49;100245.84;;;25.31;34.28
59240;BME280;45010;53.640;10.578;2022-12-10T00:27:50;100249.00;;;25.28;34.27
59240;BME280;45010;53.640;10.578;2022-12-10T00:30:50;100258.09;;;25.27;33.92
59240;BME280;45010;53.640;10.578;2022-12-10T00:33:52;100247.81;;;25.19;34.21
59240;BME280;45010;53.640;10.578;2022-12-10T00:36:52;100248.09;;;25.17;34.00
59240;BME280;45010;53.640;10.578;2022-12-10T00:39:53;100263.59;;;25.20;34.24
59240;BME280;45010;53.640;10.578;2022-12-10T00:42:53;100260.38;;;25.18;34.25
59240;BME280;45010;53.640;10.578;2022-12-10T00:45:54;100262.72;;;25.15;34.00
59240;BME280;45010;53.640;10.578;2022-12-10T00:48:54;100240.28;;;24.93;34.37
59240;BME280;45010;53.640;10.578;2022-12-10T00:51:55;100263.72;;;25.08;34.37
59240;BME280;45010;53.640;10.578;2022-12-10T00:54:55;100265.81;;;25.06;34.26
59240;BME280;45010;53.640;10.578;2022-12-10T00:57:55;100257.25;;;25.04;34.19
59240;BME280;45010;53.640;10.578;2022-12-10T01:01:16;100270.03;;;25.02;34.29
59240;BME280;45010;53.640;10.578;2022-12-10T01:04:17;100270.50;;;24.99;34.25
59240;BME280;45010;53.640;10.578;2022-12-10T01:07:17;100269.94;;;24.97;34.19
59240;BME280;45010;53.640;10.578;2022-12-10T01:10:18;100266.16;;;24.93;34.06
59240;BME280;45010;53.640;10.578;2022-12-10T01:13:18;100270.66;;;24.92;34.31
59240;BME280;45010;53.640;10.578;2022-12-10T01:16:20;100263.91;;;24.84;34.29
59240;BME280;45010;53.640;10.578;2022-12-10T01:19:21;100274.06;;;24.88;34.38
59240;BME280;45010;53.640;10.578;2022-12-10T01:22:21;100271.31;;;24.82;34.23
59240;BME280;45010;53.640;10.578;2022-12-10T01:25:21;100275.03;;;24.81;34.40
59240;BME280;45010;53.640;10.578;2022-12-10T01:28:21;100281.41;;;24.80;34.51
59240;BME280;45010;53.640;10.578;2022-12-10T01:31:24;100284.53;;;24.77;34.34
59240;BME280;45010;53.640;10.578;2022-12-10T01:34:25;100257.56;;;24.56;34.34
59240;BME280;45010;53.640;10.578;2022-12-10T01:37:26;100283.44;;;24.73;34.44
59240;BME280;45010;53.640;10.578;2022-12-10T01:40:27;100268.88;;;24.64;34.52
59240;BME280;45010;53.640;10.578;2022-12-10T01:43:29;100288.91;;;24.66;34.47
59240;BME280;45010;53.640;10.578;2022-12-10T01:46:50;100290.22;;;24.64;34.42
59240;BME280;45010;53.640;10.578;2022-12-10T01:49:51;100280.03;;;24.61;34.47
59240;BME280;45010;53.640;10.578;2022-12-10T01:52:51;100288.50;;;24.57;34.72
59240;BME280;45010;53.640;10.578;2022-12-10T01:55:51;100291.69;;;24.54;34.41
59240;BME280;45010;53.640;10.578;2022-12-10T01:58:54;100277.63;;;24.42;34.53
59240;BME280;45010;53.640;10.578;2022-12-10T02:08:46;100291.50;;;24.44;34.69
59240;BME280;45010;53.640;10.578;2022-12-10T02:12:11;100300.53;;;24.43;34.80
59240;BME280;45010;53.640;10.578;2022-12-10T02:15:17;100283.91;;;24.36;34.92
59240;BME280;45010;53.640;10.578;2022-12-10T02:18:41;100297.78;;;24.38;34.65
59240;BME280;45010;53.640;10.578;2022-12-10T02:21:45;100297.22;;;24.36;34.70
59240;BME280;45010;53.640;10.578;2022-12-10T02:24:49;100295.03;;;24.33;34.76
59240;BME280;45010;53.640;10.578;2022-12-10T02:28:01;100297.13;;;24.30;34.73
59240;BME280;45010;53.640;10.578;2022-12-10T02:31:04;100296.00;;;24.26;34.87
59240;BME280;45010;53.640;10.578;2022-12-10T02:34:06;100285.97;;;24.16;34.84
59240;BME280;45010;53.640;10.578;2022-12-10T02:37:13;100303.44;;;24.24;35.07
59240;BME280;45010;53.640;10.578;2022-12-10T02:40:24;100303.09;;;24.21;35.02
59240;BME280;45010;53.640;10.578;2022-12-10T02:43:27;100281.69;;;24.03;34.92
59240;BME280;45010;53.640;10.578;2022-12-10T02:46:31;100304.84;;;24.15;34.84
59240;BME280;45010;53.640;10.578;2022-12-10T02:49:32;100288.63;;;24.04;35.01
59240;BME280;45010;53.640;10.578;2022-12-10T02:52:34;100297.34;;;24.12;34.90
59240;BME280;45010;53.640;10.578;2022-12-10T02:56:33;100297.69;;;24.03;34.99
59240;BME280;45010;53.640;10.578;2022-12-10T02:59:11;100306.25;;;24.05;35.02
59240;BME280;45010;53.640;10.578;2022-12-10T03:09:03;100312.53;;;23.99;35.20
59240;BME280;45010;53.640;10.578;2022-12-10T03:12:15;100316.22;;;23.98;35.17
59240;BME280;45010;53.640;10.578;2022-12-10T03:15:18;100311.38;;;23.95;35.09
59240;BME280;45010;53.640;10.578;2022-12-10T03:18:22;100312.44;;;23.94;35.18
59240;BME280;45010;53.640;10.578;2022-12-10T03:21:26;100302.94;;;23.86;35.18
59240;BME280;45010;53.640;10.578;2022-12-10T03:24:27;100313.94;;;23.90;35.05
59240;BME280;45010;53.640;10.578;2022-12-10T03:27:29;100312.31;;;23.89;35.11
59240;BME280;45010;53.640;10.578;2022-12-10T03:30:31;100305.84;;;23.85;35.00
59240;BME280;45010;53.640;10.578;2022-12-10T03:33:33;100314.66;;;23.85;35.30
59240;BME280;45010;53.640;10.578;2022-12-10T03:36:33;100314.88;;;23.84;35.14
59240;BME280;45010;53.640;10.578;2022-12-10T03:39:34;100314.88;;;23.84;35.20
59240;BME280;45010;53.640;10.578;2022-12-10T03:42:36;100327.63;;;23.82;35.36
59240;BME280;45010;53.640;10.578;2022-12-10T03:45:37;100314.56;;;23.80;35.52
59240;BME280;45010;53.640;10.578;2022-12-10T03:48:37;100312.94;;;23.79;35.16
59240;BME280;45010;53.640;10.578;2022-12-10T03:51:37;100318.72;;;23.76;35.54
59240;BME280;45010;53.640;10.578;2022-12-10T03:54:38;100316.28;;;23.74;35.42
59240;BME280;45010;53.640;10.578;2022-12-10T03:57:38;100319.22;;;23.73;35.54
59240;BME280;45010;53.640;10.578;2022-12-10T04:00:38;100321.03;;;23.72;35.19
59240;BME280;45010;53.640;10.578;2022-12-10T04:03:41;100320.22;;;23.72;35.37
59240;BME280;45010;53.640;10.578;2022-12-10T04:06:42;100315.63;;;23.67;35.44
59240;BME280;45010;53.640;10.578;2022-12-10T04:09:42;100319.31;;;23.66;35.72
59240;BME280;45010;53.640;10.578;2022-12-10T04:12:44;100316.88;;;23.64;35.51
59240;BME280;45010;53.640;10.578;2022-12-10T04:16:04;100320.59;;;23.63;35.44
59240;BME280;45010;53.640;10.578;2022-12-10T04:19:23;100322.69;;;23.61;35.60
59240;BME280;45010;53.640;10.578;2022-12-10T04:22:23;100316.56;;;23.61;35.81
59240;BME280;45010;53.640;10.578;2022-12-10T04:25:42;100320.25;;;23.60;35.76
59240;BME280;45010;53.640;10.578;2022-12-10T04:29:02;100313.44;;;23.52;35.85
59240;BME280;45010;53.640;10.578;2022-12-10T04:32:02;100320.72;;;23.57;35.49
59240;BME280;45010;53.640;10.578;2022-12-10T04:35:03;100313.78;;;23.56;35.74
59240;BME280;45010;53.640;10.578;2022-12-10T04:38:03;100324.44;;;23.56;35.76
59240;BME280;45010;53.640;10.578;2022-12-10T04:41:04;100321.19;;;23.54;36.12
59240;BME280;45010;53.640;10.578;2022-12-10T04:44:15;100313.09;;;23.48;35.54
59240;BME280;45010;53.640;10.578;2022-12-10T04:47:16;100307.78;;;23.48;35.93
59240;BME280;45010;53.640;10.578;2022-12-10T04:50:17;100323.88;;;23.54;35.69
59240;BME280;45010;53.640;10.578;2022-12-10T04:53:17;100317.72;;;23.53;35.94
59240;BME280;45010;53.640;10.578;2022-12-10T04:56:17;100332.88;;;23.53;35.66
59240;BME280;45010;53.640;10.578;2022-12-10T04:59:18;100334.72;;;23.52;35.71
59240;BME280;45010;53.640;10.578;2022-12-10T05:02:19;100325.97;;;23.51;35.81
59240;BME280;45010;53.640;10.578;2022-12-10T05:05:19;100332.28;;;23.50;35.65
59240;BME280;45010;53.640;10.578;2022-12-10T05:08:19;100328.63;;;23.51;35.73
59240;BME280;45010;53.640;10.578;2022-12-10T05:11:21;100331.28;;;23.51;35.79
59240;BME280;45010;53.640;10.578;2022-12-10T05:14:22;100322.59;;;23.44;36.13
59240;BME280;45010;53.640;10.578;2022-12-10T05:17:22;100334.38;;;23.48;36.04
59240;BME280;45010;53.640;10.578;2022-12-10T05:20:23;100332.78;;;23.47;35.76
59240;BME280;45010;53.640;10.578;2022-12-10T05:23:23;100334.38;;;23.48;35.95
59240;BME280;45010;53.640;10.578;2022-12-10T05:26:29;100335.44;;;23.47;36.02
59240;BME280;45010;53.640;10.578;2022-12-10T05:29:31;100333.81;;;23.46;35.93
59240;BME280;45010;53.640;10.578;2022-12-10T05:32:33;100323.06;;;23.41;35.88
59240;BME280;45010;53.640;10.578;2022-12-10T05:35:33;100324.22;;;23.45;35.75
59240;BME280;45010;53.640;10.578;2022-12-10T05:38:34;100331.16;;;23.46;36.07
59240;BME280;45010;53.640;10.578;2022-12-10T05:41:36;100334.88;;;23.45;35.92
59240;BME280;45010;53.640;10.578;2022-12-10T05:44:36;100335.66;;;23.46;36.02
59240;BME280;45010;53.640;10.578;2022-12-10T05:47:37;100326.28;;;23.43;36.12
59240;BME280;45010;53.640;10.578;2022-12-10T05:50:37;100321.13;;;23.36;36.06
59240;BME280;45010;53.640;10.578;2022-12-10T05:53:38;100339.59;;;23.43;36.32
59240;BME280;45010;53.640;10.578;2022-12-10T05:56:39;100340.66;;;23.42;36.02
59240;BME280;45010;53.640;10.578;2022-12-10T05:59:39;100339.03;;;23.41;35.98
59240;BME280;45010;53.640;10.578;2022-12-10T06:02:40;100333.03;;;23.34;35.96
59240;BME280;45010;53.640;10.578;2022-12-10T06:05:40;100323.28;;;23.28;36.12
59240;BME280;45010;53.640;10.578;2022-12-10T06:08:41;100340.09;;;23.40;36.08
59240;BME280;45010;53.640;10.578;2022-12-10T06:11:41;100338.34;;;23.34;36.06
59240;BME280;45010;53.640;10.578;2022-12-10T06:14:42;100341.13;;;23.39;36.12
59240;BME280;45010;53.640;10.578;2022-12-10T06:17:42;100350.13;;;23.38;36.15
59240;BME280;45010;53.640;10.578;2022-12-10T06:20:43;100341.13;;;23.39;36.47
59240;BME280;45010;53.640;10.578;2022-12-10T06:23:44;100323.16;;;23.22;36.06
59240;BME280;45010;53.640;10.578;2022-12-10T06:26:44;100355.44;;;23.38;35.98
59240;BME280;45010;53.640;10.578;2022-12-10T06:29:44;100351.19;;;23.37;36.32
59240;BME280;45010;53.640;10.578;2022-12-10T06:32:45;100355.44;;;23.38;36.12
59240;BME280;45010;53.640;10.578;2022-12-10T06:35:45;100352.00;;;23.37;36.21
59240;BME280;45010;53.640;10.578;2022-12-10T06:38:46;100341.91;;;23.28;36.19
59240;BME280;45010;53.640;10.578;2022-12-10T06:41:47;100316.09;;;23.16;36.22
59240;BME280;45010;53.640;10.578;2022-12-10T06:44:47;100361.59;;;23.38;35.97
59240;BME280;45010;53.640;10.578;2022-12-10T06:47:47;100358.38;;;23.36;36.48
59240;BME280;45010;53.640;10.578;2022-12-10T06:50:48;100362.03;;;23.35;36.49
59240;BME280;45010;53.640;10.578;2022-12-10T06:53:48;100366.56;;;23.35;36.27
59240;BME280;45010;53.640;10.578;2022-12-10T06:56:48;100362.88;;;23.36;36.38
59240;BME280;45010;53.640;10.578;2022-12-10T06:59:49;100369.00;;;23.36;36.56
59240;BME280;45010;53.640;10.578;2022-12-10T07:02:49;100371.91;;;23.35;36.49
59240;BME280;45010;53.640;10.578;2022-12-10T07:05:49;100370.50;;;23.32;36.26
59240;BME280;45010;53.640;10.578;2022-12-10T07:08:50;100377.22;;;23.35;36.47
59240;BME280;45010;53.640;10.578;2022-12-10T07:11:50;100384.16;;;23.36;36.19
59240;BME280;45010;53.640;10.578;2022-12-10T07:14:51;100381.72;;;23.34;36.03
59240;BME280;45010;53.640;10.578;2022-12-10T07:17:51;100386.25;;;23.34;36.20
59240;BME280;45010;53.640;10.578;2022-12-10T07:20:51;100393.97;;;23.35;36.07
59240;BME280;45010;53.640;10.578;2022-12-10T07:23:54;100396.88;;;23.34;36.66
59240;BME280;45010;53.640;10.578;2022-12-10T07:26:55;100395.28;;;23.33;36.46
59240;BME280;45010;53.640;10.578;2022-12-10T07:29:56;100397.34;;;23.31;36.59
59240;BME280;45010;53.640;10.578;2022-12-10T07:32:56;100398.94;;;23.32;36.65
59240;BME280;45010;53.640;10.578;2022-12-10T07:35:56;100404.28;;;23.32;36.47
59240;BME280;45010;53.640;10.578;2022-12-10T07:38:57;100409.59;;;23.32;36.58
59240;BME280;45010;53.640;10.578;2022-12-10T07:41:57;100404.28;;;23.32;36.33
59240;BME280;45010;53.640;10.578;2022-12-10T07:44:58;100404.28;;;23.32;36.18
59240;BME280;45010;53.640;10.578;2022-12-10T07:47:58;100409.59;;;23.32;36.19
59240;BME280;45010;53.640;10.578;2022-12-10T07:50:58;100407.97;;;23.31;36.46
59240;BME280;45010;53.640;10.578;2022-12-10T07:53:59;100408.78;;;23.31;36.43
59240;BME280;45010;53.640;10.578;2022-12-10T07:56:59;100413.28;;;23.31;36.16
59240;BME280;45010;53.640;10.578;2022-12-10T08:00:00;100414.91;;;23.32;36.45
59240;BME280;45010;53.640;10.578;2022-12-10T08:03:00;100416.78;;;23.31;36.23
59240;BME280;45010;53.640;10.578;2022-12-10T08:06:06;100408.88;;;23.24;36.36
59240;BME280;45010;53.640;10.578;2022-12-10T08:09:06;100416.16;;;23.29;36.60
59240;BME280;45010;53.640;10.578;2022-12-10T08:12:07;100424.75;;;23.31;36.89
59240;BME280;45010;53.640;10.578;2022-12-10T08:15:07;100423.50;;;23.34;37.20
59240;BME280;45010;53.640;10.578;2022-12-10T08:18:08;100416.09;;;23.36;37.29
59240;BME280;45010;53.640;10.578;2022-12-10T08:21:14;100414.91;;;23.32;37.40
59240;BME280;45010;53.640;10.578;2022-12-10T08:24:15;100427.91;;;23.40;37.22
59240;BME280;45010;53.640;10.578;2022-12-10T08:27:15;100425.81;;;23.42;36.98
59240;BME280;45010;53.640;10.578;2022-12-10T08:30:15;100428.59;;;23.47;37.22
59240;BME280;45010;53.640;10.578;2022-12-10T08:33:16;100430.56;;;23.52;37.06
59240;BME280;45010;53.640;10.578;2022-12-10T08:36:17;100428.13;;;23.50;37.14
59240;BME280;45010;53.640;10.578;2022-12-10T08:39:18;100433.91;;;23.59;36.96
59240;BME280;45010;53.640;10.578;2022-12-10T08:42:18;100432.41;;;23.63;36.93
59240;BME280;45010;53.640;10.578;2022-12-10T08:45:18;100438.06;;;23.67;36.76
59240;BME280;45010;53.640;10.578;2022-12-10T08:48:19;100444.56;;;23.71;36.94
59240;BME280;45010;53.640;10.578;2022-12-10T08:51:20;100430.69;;;23.69;36.87
59240;BME280;45010;53.640;10.578;2022-12-10T08:54:21;100442.59;;;23.78;36.62
59240;BME280;45010;53.640;10.578;2022-12-10T08:57:21;100438.75;;;23.74;36.39
59240;BME280;45010;53.640;10.578;2022-12-10T09:00:21;100455.78;;;23.85;36.33
59240;BME280;45010;53.640;10.578;2022-12-10T09:03:22;100461.47;;;23.89;36.31
59240;BME280;45010;53.640;10.578;2022-12-10T09:06:24;100441.09;;;23.83;36.39
59240;BME280;45010;53.640;10.578;2022-12-10T09:09:24;100463.75;;;23.97;36.46
59240;BME280;45010;53.640;10.578;2022-12-10T09:12:25;100453.47;;;23.89;36.44
59240;BME280;45010;53.640;10.578;2022-12-10T09:15:25;100463.88;;;24.02;36.46
59240;BME280;45010;53.640;10.578;2022-12-10T09:18:27;100467.72;;;24.07;36.41
59240;BME280;45010;53.640;10.578;2022-12-10T09:21:28;100464.44;;;24.04;36.14
59240;BME280;45010;53.640;10.578;2022-12-10T09:24:29;100462.38;;;24.07;36.18
59240;BME280;45010;53.640;10.578;2022-12-10T09:27:30;100475.34;;;24.15;36.24
59240;BME280;45010;53.640;10.578;2022-12-10T09:30:30;100481.03;;;24.18;35.79
59240;BME280;45010;53.640;10.578;2022-12-10T09:33:31;100470.03;;;24.15;36.06
59240;BME280;45010;53.640;10.578;2022-12-10T09:36:32;100482.97;;;24.23;35.75
59240;BME280;45010;53.640;10.578;2022-12-10T09:39:32;100477.19;;;24.26;35.72
59240;BME280;45010;53.640;10.578;2022-12-10T09:42:48;100477.75;;;24.28;36.03
59240;BME280;45010;53.640;10.578;2022-12-10T09:52:15;100460.03;;;24.22;35.82
59240;BME280;45010;53.640;10.578;2022-12-10T09:55:20;100459.59;;;24.25;35.87
59240;BME280;45010;53.640;10.578;2022-12-10T09:58:24;100473.69;;;24.38;35.59
59240;BME280;45010;53.640;10.578;2022-12-10T10:01:27;100480.63;;;24.39;35.79
59240;BME280;45010;53.640;10.578;2022-12-10T10:04:28;100459.09;;;24.28;36.14
59240;BME280;45010;53.640;10.578;2022-12-10T10:07:30;100463.97;;;24.31;35.82
59240;BME280;45010;53.640;10.578;2022-12-10T10:10:34;100466.75;;;24.37;35.53
59240;BME280;45010;53.640;10.578;2022-12-10T10:13:42;100480.19;;;24.42;35.55
59240;BME280;45010;53.640;10.578;2022-12-10T10:17:02;100468.47;;;24.31;35.37
59240;BME280;45010;53.640;10.578;2022-12-10T10:20:04;100475.88;;;24.41;35.58
59240;BME280;45010;53.640;10.578;2022-12-10T10:23:05;100467.09;;;24.40;35.52
59240;BME280;45010;53.640;10.578;2022-12-10T10:26:05;100471.59;;;24.40;35.54
59240;BME280;45010;53.640;10.578;2022-12-10T10:29:11;100461.09;;;24.33;35.38
59240;BME280;45010;53.640;10.578;2022-12-10T10:32:22;100471.59;;;24.40;35.07
59240;BME280;45010;53.640;10.578;2022-12-10T10:38:29;100472.88;;;24.37;35.17
59240;BME280;45010;53.640;10.578;2022-12-10T10:41:35;100464.44;;;24.28;35.09
59240;BME280;45010;53.640;10.578;2022-12-10T10:44:41;100480.63;;;24.39;35.09
59240;BME280;45010;53.640;10.578;2022-12-10T10:47:41;100484.13;;;24.39;35.33
59240;BME280;45010;53.640;10.578;2022-12-10T10:50:48;100491.31;;;24.39;35.75
59240;BME280;45010;53.640;10.578;2022-12-10T10:53:50;100482.47;;;24.38;36.00
59240;BME280;45010;53.640;10.578;2022-12-10T10:56:54;100476.59;;;24.36;36.03
59240;BME280;45010;53.640;10.578;2022-12-10T11:00:00;100472.53;;;24.34;36.16
59240;BME280;45010;53.640;10.578;2022-12-10T11:03:00;100487.59;;;24.40;36.19
59240;BME280;45010;53.640;10.578;2022-12-10T11:06:06;100478.53;;;24.41;36.08
59240;BME280;45010;53.640;10.578;2022-12-10T11:09:07;100483.88;;;24.41;36.41
59240;BME280;45010;53.640;10.578;2022-12-10T11:12:27;100485.50;;;24.42;36.34
59240;BME280;45010;53.640;10.578;2022-12-10T11:18:34;100485.59;;;24.47;36.43
59240;BME280;45010;53.640;10.578;2022-12-10T11:21:35;100488.03;;;24.49;36.37
59240;BME280;45010;53.640;10.578;2022-12-10T11:24:35;100485.13;;;24.50;36.40
59240;BME280;45010;53.640;10.578;2022-12-10T11:27:53;100478.75;;;24.51;36.20
59240;BME280;45010;53.640;10.578;2022-12-10T11:31:17;100470.53;;;24.53;36.09
59240;BME280;45010;53.640;10.578;2022-12-10T11:41:52;100454.19;;;24.49;36.08
59240;BME280;45010;53.640;10.578;2022-12-10T11:52:40;100466.69;;;24.61;36.01
59240;BME280;45010;53.640;10.578;2022-12-10T12:06:04;100468.41;;;24.55;35.04
59240;BME280;45010;53.640;10.578;2022-12-10T12:15:51;100466.47;;;24.50;35.05
59240;BME280;45010;53.640;10.578;2022-12-10T12:18:59;100452.47;;;24.43;35.23
59240;BME280;45010;53.640;10.578;2022-12-10T12:22:14;100459.53;;;24.49;35.03
59240;BME280;45010;53.640;10.578;2022-12-10T12:31:37;100433.06;;;24.30;35.08
59240;BME280;45010;53.640;10.578;2022-12-10T12:34:56;100452.72;;;24.41;35.39
59240;BME280;45010;53.640;10.578;2022-12-10T12:38:03;100454.94;;;24.33;35.18
59240;BME280;45010;53.640;10.578;2022-12-10T12:41:34;100464.09;;;24.37;35.32
59240;BME280;45010;53.640;10.578;2022-12-10T12:47:55;100455.88;;;24.26;35.27
59240;BME280;45010;53.640;10.578;2022-12-10T12:51:00;100466.53;;;24.26;35.18
59240;BME280;45010;53.640;10.578;2022-12-10T12:54:01;100460.75;;;24.17;35.20
59240;BME280;45010;53.640;10.578;2022-12-10T12:57:21;100435.41;;;24.03;35.55
59240;BME280;45010;53.640;10.578;2022-12-10T13:00:28;100465.97;;;24.12;35.38
59240;BME280;45010;53.640;10.578;2022-12-10T13:03:39;100461.47;;;24.13;35.34
59240;BME280;45010;53.640;10.578;2022-12-10T13:06:41;100462.59;;;24.05;35.68
59240;BME280;45010;53.640;10.578;2022-12-10T13:09:52;100437.63;;;23.94;35.49
59240;BME280;45010;53.640;10.578;2022-12-10T13:19:41;100453.59;;;23.94;35.56
59240;BME280;45010;53.640;10.578;2022-12-10T13:22:43;100480.91;;;24.01;35.60
59240;BME280;45010;53.640;10.578;2022-12-10T13:28:57;100474.91;;;23.94;35.47
59240;BME280;45010;53.640;10.578;2022-12-10T13:32:17;100465.28;;;23.81;35.57
59240;BME280;45010;53.640;10.578;2022-12-10T13:35:29;100468.78;;;23.82;35.70
59240;BME280;45010;53.640;10.578;2022-12-10T13:38:39;100480.56;;;23.86;35.71
59240;BME280;45010;53.640;10.578;2022-12-10T13:48:30;100496.53;;;23.86;35.39
59240;BME280;45010;53.640;10.578;2022-12-10T13:52:03;100501.28;;;23.84;35.51
59240;BME280;45010;53.640;10.578;2022-12-10T13:55:19;100503.38;;;23.82;35.52
59240;BME280;45010;53.640;10.578;2022-12-10T14:05:31;100509.63;;;23.75;35.73
59240;BME280;45010;53.640;10.578;2022-12-10T14:08:35;100510.09;;;23.72;35.74
59240;BME280;45010;53.640;10.578;2022-12-10T14:11:40;100512.19;;;23.70;36.09
59240;BME280;45010;53.640;10.578;2022-12-10T14:14:47;100501.63;;;23.63;35.92
59240;BME280;45010;53.640;10.578;2022-12-10T14:18:00;100522.47;;;23.67;36.08
59240;BME280;45010;53.640;10.578;2022-12-10T14:21:04;100515.41;;;23.60;35.95
59240;BME280;45010;53.640;10.578;2022-12-10T14:24:05;100516.81;;;23.63;36.03
59240;BME280;45010;53.640;10.578;2022-12-10T14:27:16;100509.72;;;23.57;35.70
59240;BME280;45010;53.640;10.578;2022-12-10T14:30:22;100514.47;;;23.55;36.15
59240;BME280;45010;53.640;10.578;2022-12-10T14:33:24;100520.13;;;23.58;35.82
59240;BME280;45010;53.640;10.578;2022-12-10T14:36:28;100516.69;;;23.58;35.76
59240;BME280;45010;53.640;10.578;2022-12-10T14:39:31;100520.59;;;23.55;35.90
59240;BME280;45010;53.640;10.578;2022-12-10T14:42:33;100523.50;;;23.54;36.19
59240;BME280;45010;53.640;10.578;2022-12-10T14:45:45;100521.88;;;23.53;36.15
59240;BME280;45010;53.640;10.578;2022-12-10T14:48:46;100518.59;;;23.50;35.87
59240;BME280;45010;53.640;10.578;2022-12-10T14:51:48;100527.63;;;23.49;35.83
59240;BME280;45010;53.640;10.578;2022-12-10T14:54:49;100517.00;;;23.49;36.03
59240;BME280;45010;53.640;10.578;2022-12-10T14:57:59;100501.81;;;23.38;35.86
59240;BME280;45010;53.640;10.578;2022-12-10T15:01:01;100521.97;;;23.46;35.96
59240;BME280;45010;53.640;10.578;2022-12-10T15:04:04;100514.19;;;23.44;35.92
59240;BME280;45010;53.640;10.578;2022-12-10T15:07:08;100521.63;;;23.42;36.00
59240;BME280;45010;53.640;10.578;2022-12-10T15:10:18;100511.06;;;23.35;35.93
59240;BME280;45010;53.640;10.578;2022-12-10T15:13:37;100523.69;;;23.40;35.99
59240;BME280;45010;53.640;10.578;2022-12-10T15:16:41;100516.03;;;23.32;36.04
59240;BME280;45010;53.640;10.578;2022-12-10T15:19:42;100529.47;;;23.37;36.28
59240;BME280;45010;53.640;10.578;2022-12-10T15:22:50;100540.31;;;23.35;36.05
59240;BME280;45010;53.640;10.578;2022-12-10T15:32:27;100534.53;;;23.27;36.38
59240;BME280;45010;53.640;10.578;2022-12-10T15:35:28;100544.69;;;23.30;36.37
59240;BME280;45010;53.640;10.578;2022-12-10T15:38:29;100545.72;;;23.29;36.47
59240;BME280;45010;53.640;10.578;2022-12-10T15:41:40;100539.44;;;23.23;36.06
59240;BME280;45010;53.640;10.578;2022-12-10T15:44:45;100532.63;;;23.15;36.10
59240;BME280;45010;53.640;10.578;2022-12-10T15:47:46;100548.84;;;23.25;36.42
59240;BME280;45010;53.640;10.578;2022-12-10T15:50:46;100543.50;;;23.25;36.45
59240;BME280;45010;53.640;10.578;2022-12-10T15:53:48;100547.22;;;23.24;36.49
59240;BME280;45010;53.640;10.578;2022-12-10T15:56:49;100535.84;;;23.17;36.17
59240;BME280;45010;53.640;10.578;2022-12-10T15:59:58;100537.94;;;23.15;36.60
59240;BME280;45010;53.640;10.578;2022-12-10T16:03:00;100510.34;;;22.97;36.25
59240;BME280;45010;53.640;10.578;2022-12-10T16:06:04;100543.63;;;23.19;36.32
59240;BME280;45010;53.640;10.578;2022-12-10T16:09:05;100528.22;;;23.09;36.29
59240;BME280;45010;53.640;10.578;2022-12-10T16:12:09;100540.13;;;23.18;36.46
59240;BME280;45010;53.640;10.578;2022-12-10T16:15:19;100540.13;;;23.18;36.78
59240;BME280;45010;53.640;10.578;2022-12-10T16:18:20;100532.03;;;23.13;37.04
59240;BME280;45010;53.640;10.578;2022-12-10T16:21:20;100534.59;;;23.20;36.81
59240;BME280;45010;53.640;10.578;2022-12-10T16:24:21;100545.03;;;23.21;36.93
59240;BME280;45010;53.640;10.578;2022-12-10T16:27:21;100541.31;;;23.22;37.12
59240;BME280;45010;53.640;10.578;2022-12-10T16:30:34;100539.22;;;23.24;37.13
59240;BME280;45010;53.640;10.578;2022-12-10T16:33:34;100536.13;;;23.28;37.24
59240;BME280;45010;53.640;10.578;2022-12-10T16:36:35;100546.34;;;23.31;37.28
59240;BME280;45010;53.640;10.578;2022-12-10T16:39:36;100538.97;;;23.33;37.00
59240;BME280;45010;53.640;10.578;2022-12-10T16:42:36;100549.13;;;23.36;36.97
59240;BME280;45010;53.640;10.578;2022-12-10T16:45:38;100545.91;;;23.34;36.98
59240;BME280;45010;53.640;10.578;2022-12-10T16:48:39;100532.81;;;23.32;36.81
59240;BME280;45010;53.640;10.578;2022-12-10T16:51:39;100556.34;;;23.47;36.75
59240;BME280;45010;53.640;10.578;2022-12-10T16:54:41;100541.56;;;23.51;36.99
59240;BME280;45010;53.640;10.578;2022-12-10T16:57:42;100545.34;;;23.56;36.67
59240;BME280;45010;53.640;10.578;2022-12-10T17:00:47;100539.47;;;23.54;36.99
59240;BME280;45010;53.640;10.578;2022-12-10T17:03:50;100522.78;;;23.46;36.80
59240;BME280;45010;53.640;10.578;2022-12-10T17:06:51;100545.63;;;23.66;36.71
59240;BME280;45010;53.640;10.578;2022-12-10T17:09:51;100552.91;;;23.71;36.86
59240;BME280;45010;53.640;10.578;2022-12-10T17:12:51;100560.44;;;23.74;36.66
59240;BME280;45010;53.640;10.578;2022-12-10T17:15:52;100560.59;;;23.79;36.48
59240;BME280;45010;53.640;10.578;2022-12-10T17:18:52;100553.72;;;23.83;36.50
59240;BME280;45010;53.640;10.578;2022-12-10T17:21:52;100551.31;;;23.82;36.54
59240;BME280;45010;53.640;10.578;2022-12-10T17:24:53;100554.19;;;23.92;36.36